Latest Weather Observations for Avalon

IDV60901

Issued at 5:11 pm EST Saturday 23 May 2015 (issued every 10 minutes, with the page automatically refreshed every 10 minutes)

About weather observations | Map of Melbourne area stations | Latest observations for Melbourne area | Other Formats
Station Details ID: 087113 Name: AVALON AIRPORT Lat: -38.03 Lon: 144.48 Height: 10.6 m
Data from the previous 72 hours. | See also: Recent months at Avalon
Date/Time
EST
Tmp

°C
App
Tmp
°C
Dew
Point
°C
Rel
Hum
%
Delta-T

°C
Wind Press
QNH
hPa
Press
MSL
hPa
Rain
since
9 am
mm
Dir
 
Spd
km/h
Gust
km/h
Spd
kts
Gust
kts
23/05:00pm 11.2 8.3 6.5 73 2.2 SSE 11 15 6 8 1031.7 1031.7 -
23/04:30pm - - - - - - - - - - - - -
23/04:00pm 11.7 8.1 6.8 72 2.3 SSE 15 19 8 10 1031.7 1031.7 0.0
23/03:30pm 12.1 8.6 7.2 72 2.4 SSW 15 19 8 10 1031.7 1031.7 0.0
23/03:00pm 12.4 9.7 7.3 71 2.4 SSW 11 20 6 11 1031.7 1031.7 0.0
23/02:30pm 12.6 10.6 7.1 69 2.7 SW 7 11 4 6 1031.8 1031.8 0.0
23/02:00pm 12.5 10.1 6.8 68 2.7 S 9 17 5 9 1031.9 1031.9 0.0
23/01:30pm 12.8 10.0 7.0 68 2.8 S 11 19 6 10 1032.0 1032.0 0.0
23/01:00pm 12.5 9.0 7.0 69 2.6 S 15 20 8 11 1032.2 1032.2 0.0
23/12:30pm 12.7 9.9 7.0 68 2.7 S 11 17 6 9 1032.4 1032.4 0.0
23/12:00pm 12.3 9.8 6.4 67 2.8 S 9 19 5 10 1032.9 1032.9 0.0
23/11:30am 12.5 11.7 6.3 66 2.9 CALM 0 7 0 4 1033.3 1033.3 0.0
23/11:00am 12.5 10.1 6.8 68 2.7 SE 9 15 5 8 1033.4 1033.4 0.0
23/10:30am 12.1 10.9 6.4 68 2.7 SSW 2 9 1 5 1033.7 1033.7 0.0
23/10:00am 11.5 8.9 6.0 69 2.5 S 9 19 5 10 1033.7 1033.7 0.0
23/09:30am 11.5 9.4 6.6 72 2.3 WSW 7 11 4 6 1033.6 1033.6 0.0
23/09:00am 10.9 10.1 6.6 75 2.0 CALM 0 0 0 0 1033.5 1033.5 0.0
23/08:30am 10.4 9.3 6.9 79 1.7 WNW 2 7 1 4 1033.4 1033.4 0.0
23/08:00am 10.3 9.5 6.3 76 1.8 CALM 0 0 0 0 1033.1 1033.1 0.0
23/07:30am 9.8 7.8 6.2 78 1.7 N 6 7 3 4 1032.9 1032.9 0.0
23/07:00am 10.0 9.0 5.8 75 1.9 CALM 0 0 0 0 1032.7 1032.7 0.0
23/06:30am 10.8 9.8 5.8 71 2.3 CALM 0 0 0 0 1032.5 1032.5 0.0
23/06:00am 10.3 8.2 5.7 73 2.1 SSE 6 7 3 4 1032.4 1032.4 0.0
23/05:30am 10.1 7.8 5.9 75 1.9 SSE 7 9 4 5 1032.3 1032.3 0.0
23/05:00am 9.9 8.5 5.7 75 1.9 S 2 9 1 5 1032.1 1032.1 0.0
23/04:30am 10.1 7.4 5.5 73 2.1 SSE 9 13 5 7 1031.9 1031.9 0.0
23/04:00am 10.5 7.1 6.1 74 2.0 SSE 13 17 7 9 1031.7 1031.7 0.0
23/03:30am 10.1 7.5 5.9 75 1.9 SSE 9 15 5 8 1031.8 1031.8 0.0
23/03:00am 10.0 7.4 6.0 76 1.8 SSE 9 11 5 6 1032.0 1032.0 0.0
23/02:30am 10.2 7.6 6.0 75 1.9 S 9 13 5 7 1032.3 1032.3 0.0
23/02:00am 10.4 8.2 6.0 74 2.0 S 7 13 4 7 1032.2 1032.2 0.0
23/01:30am 10.1 7.5 6.1 76 1.9 SSW 9 11 5 6 1032.2 1032.2 0.0
23/01:00am 10.3 7.2 5.7 73 2.1 S 11 17 6 9 1032.3 1032.3 0.0
23/12:30am 11.1 7.8 6.5 73 2.2 S 13 19 7 10 1032.4 1032.4 0.0
23/12:00am 11.0 7.4 6.6 74 2.1 SSW 15 19 8 10 1032.6 1032.6 0.0
 
Date/Time
EST
Tmp

°C
App
Tmp
°C
Dew
Point
°C
Rel
Hum
%
Delta-T

°C
Wind Press
QNH
hPa
Press
MSL
hPa
Rain
since
9 am
mm
Dir
 
Spd
km/h
Gust
km/h
Spd
kts
Gust
kts
22/11:30pm 11.2 7.3 6.9 75 2.0 SSW 17 22 9 12 1032.5 1032.5 0.0
22/11:00pm 10.9 8.5 6.8 76 1.9 SSW 9 11 5 6 1032.5 1032.5 0.0
22/10:30pm 11.0 8.1 6.4 73 2.2 SSE 11 15 6 8 1032.5 1032.5 0.0
22/10:00pm 11.1 7.8 6.3 72 2.2 SSW 13 17 7 9 1032.6 1032.6 0.0
22/09:30pm 11.2 7.0 5.7 69 2.5 SSE 17 24 9 13 1032.3 1032.3 0.0
22/09:00pm 11.2 6.7 5.9 70 2.4 SSW 19 22 10 12 1032.4 1032.4 0.0
22/08:30pm 11.3 7.7 6.6 73 2.2 SSW 15 20 8 11 1032.1 1032.1 0.0
22/08:00pm 11.2 7.8 5.9 70 2.4 SSE 13 17 7 9 1032.1 1032.1 0.0
22/07:30pm 11.2 7.3 5.5 68 2.6 SSW 15 19 8 10 1032.0 1032.0 0.0
22/07:00pm 11.4 6.8 5.5 67 2.7 S 19 24 10 13 1031.8 1031.8 0.0
22/06:30pm 11.5 5.9 5.4 66 2.8 SSW 24 28 13 15 1031.5 1031.5 0.0
22/06:00pm 11.4 7.2 5.9 69 2.5 SSW 17 22 9 12 1031.2 1031.2 0.0
22/05:30pm 11.5 6.8 6.0 69 2.6 S 20 26 11 14 1031.1 1031.1 0.0
22/05:00pm 11.9 7.0 6.8 71 2.4 SSW 22 30 12 16 1031.0 1031.0 0.0
22/04:30pm 12.2 7.6 6.5 68 2.7 S 20 28 11 15 1030.8 1030.8 0.0
22/04:00pm 12.5 7.7 7.4 71 2.5 SSW 22 28 12 15 1030.7 1030.7 0.0
22/03:30pm 12.7 7.6 7.6 71 2.5 S 24 32 13 17 1030.6 1030.6 0.0
22/03:00pm 12.9 7.5 6.5 65 3.0 S 24 30 13 16 1030.3 1030.3 0.0
22/02:30pm 13.1 7.1 6.9 66 3.0 S 28 35 15 19 1030.0 1030.0 0.0
22/02:00pm 13.2 7.2 7.0 66 3.0 SSW 28 35 15 19 1030.0 1030.0 0.0
22/01:30pm 13.6 8.0 7.2 65 3.1 SSW 26 32 14 17 1029.8 1029.8 0.0
22/01:00pm 13.8 7.9 7.3 65 3.2 SSW 28 32 15 17 1029.9 1029.9 0.0
22/12:30pm 13.6 9.0 8.0 69 2.8 S 22 30 12 16 1030.0 1030.0 0.0
22/12:00pm 14.2 9.4 9.0 71 2.6 S 24 30 13 16 1030.1 1030.1 0.0
22/11:30am 13.9 9.2 9.1 73 2.4 SSE 24 32 13 17 1030.3 1030.3 0.0
22/11:00am 13.6 9.2 9.1 74 2.3 SSE 22 28 12 15 1030.4 1030.4 0.0
22/10:30am 13.6 9.0 9.5 76 2.1 SSE 24 30 13 16 1030.2 1030.2 0.0
22/10:00am 13.5 9.3 9.7 78 1.9 S 22 28 12 15 1030.2 1030.2 0.0
22/09:30am 13.8 9.8 10.4 80 1.8 SSE 22 28 12 15 1030.0 1030.0 0.0
22/09:00am 13.0 10.5 11.2 89 0.9 SSE 15 22 8 12 1030.0 1030.0 0.6
22/08:30am 12.3 9.8 11.2 93 0.6 S 15 19 8 10 1029.9 1029.9 0.6
22/08:00am 11.7 10.4 11.4 98 0.2 SSW 9 13 5 7 1029.6 1029.6 0.6
22/07:30am 11.2 9.4 10.7 97 0.3 SW 11 13 6 7 1029.2 1029.2 0.6
22/07:00am 10.9 9.0 10.6 98 0.2 SSW 11 15 6 8 1028.8 1028.8 0.6
22/06:30am 10.7 9.6 10.5 99 0.1 SW 7 11 4 6 1028.5 1028.5 0.6
22/06:00am 10.5 9.3 10.3 99 0.1 SW 7 9 4 5 1028.2 1028.2 0.6
22/05:30am 9.9 9.9 9.8 99 0.1 CALM 0 0 0 0 1027.9 1027.9 0.6
22/05:00am 9.9 9.9 9.8 99 0.0 CALM 0 0 0 0 1027.8 1027.8 0.6
22/04:30am 9.6 9.5 9.5 99 0.0 CALM 0 0 0 0 1027.7 1027.7 0.6
22/04:00am 9.0 8.7 8.5 97 0.2 CALM 0 0 0 0 1027.5 1027.5 0.6
22/03:30am 8.6 6.8 7.8 95 0.4 WSW 7 9 4 5 1027.4 1027.4 0.6
22/03:00am 9.7 8.1 8.8 94 0.4 S 7 9 4 5 1027.2 1027.2 0.6
22/02:30am 10.7 8.5 9.5 92 0.6 SE 11 13 6 7 1027.1 1027.1 0.6
22/02:00am 11.6 9.3 10.5 93 0.6 SE 13 17 7 9 1027.1 1027.1 0.6
22/01:30am 11.9 10.5 11.0 94 0.5 ESE 9 11 5 6 1026.8 1026.8 0.6
22/01:00am 12.0 9.5 11.2 95 0.4 SE 15 19 8 10 1026.9 1026.9 0.6
22/12:30am 11.9 10.6 11.3 96 0.3 SE 9 11 5 6 1026.8 1026.8 0.6
22/12:00am 12.0 10.0 11.5 97 0.3 S 13 15 7 8 1026.8 1026.8 0.6
 
Date/Time
EST
Tmp

°C
App
Tmp
°C
Dew
Point
°C
Rel
Hum
%
Delta-T

°C
Wind Press
QNH
hPa
Press
MSL
hPa
Rain
since
9 am
mm
Dir
 
Spd
km/h
Gust
km/h
Spd
kts
Gust
kts
21/11:30pm 11.9 10.6 11.4 97 0.3 S 9 11 5 6 1026.7 1026.7 0.6
21/11:00pm 11.9 10.6 11.4 97 0.3 SE 9 11 5 6 1026.6 1026.6 0.6
21/10:30pm 11.8 10.5 11.3 97 0.3 SE 9 11 5 6 1026.6 1026.6 0.6
21/10:09pm 11.8 9.7 11.3 97 0.3 SE 13 19 7 10 1026.6 1026.6 0.6
21/10:00pm 11.7 9.2 11.1 96 0.3 SE 15 17 8 9 1026.5 1026.5 0.6
21/09:40pm 12.2 9.5 11.6 96 0.3 SE 17 24 9 13 1026.5 1026.5 0.6
21/09:39pm 12.2 9.1 11.6 96 0.3 SE 19 24 10 13 1026.5 1026.5 0.6
21/09:30pm 12.2 8.5 11.6 96 0.3 SE 22 28 12 15 1026.3 1026.3 0.6
21/09:00pm 12.4 8.0 11.8 96 0.3 SE 26 35 14 19 1025.8 1025.8 0.6
21/08:30pm 12.4 7.4 12.1 98 0.2 SSE 30 37 16 20 1025.2 1025.2 0.6
21/08:00pm 12.9 8.4 12.6 98 0.2 SSE 28 35 15 19 1024.7 1024.7 0.6
21/07:30pm 12.4 8.9 12.2 99 0.1 SW 22 30 12 16 1024.4 1024.4 0.6
21/07:00pm 11.6 7.5 11.3 98 0.2 WSW 24 32 13 17 1024.4 1024.4 0.6
21/06:33pm 11.4 7.2 11.1 98 0.2 WSW 24 30 13 16 1024.4 1024.4 0.6
21/06:30pm 11.4 7.6 11.1 98 0.2 WSW 22 30 12 16 1024.4 1024.4 0.6
21/06:01pm 11.5 7.6 10.7 95 0.4 SW 22 30 12 16 1024.4 1024.4 0.4
21/06:00pm 11.5 7.6 10.7 95 0.4 SW 22 30 12 16 1024.4 1024.4 0.4
21/05:53pm 11.6 8.0 10.5 93 0.6 SW 20 28 11 15 1024.4 1024.4 0.4
21/05:30pm 11.5 8.8 10.2 92 0.7 SW 15 24 8 13 1024.3 1024.3 0.2
21/05:00pm 11.3 7.1 9.7 90 0.8 SSW 22 28 12 15 1024.3 1024.3 0.0
21/04:30pm 12.0 8.0 9.2 83 1.4 SSW 20 26 11 14 1024.1 1024.1 0.0
21/04:00pm 12.9 8.0 8.4 74 2.2 SSW 24 33 13 18 1023.9 1023.9 0.0
21/03:30pm 13.2 7.9 8.3 72 2.4 SSW 26 35 14 19 1023.6 1023.6 0.0
21/03:00pm 13.0 9.0 9.1 77 2.0 SW 20 30 11 16 1023.5 1023.5 0.0
21/02:30pm 12.5 8.1 9.1 80 1.7 SW 22 28 12 15 1023.5 1023.5 0.0
21/02:00pm 12.4 9.2 10.1 86 1.2 SSW 17 26 9 14 1023.5 1023.5 0.0
21/01:30pm 13.6 10.0 10.0 79 1.9 S 19 24 10 13 1023.6 1023.6 0.0
21/01:00pm 12.6 8.9 9.4 81 1.6 SSW 19 28 10 15 1023.8 1023.8 0.0
21/12:30pm 13.4 8.4 9.5 77 2.0 SSW 26 33 14 18 1024.0 1024.0 0.0
21/12:00pm 14.5 10.7 9.7 73 2.5 SSW 20 24 11 13 1024.1 1024.1 0.0
21/11:30am 13.1 10.3 10.1 82 1.5 SW 15 19 8 10 1024.4 1024.4 0.0
21/11:00am 11.3 7.8 8.9 85 1.2 SW 17 28 9 15 1024.7 1024.7 0.0
21/10:30am 11.8 8.5 8.1 78 1.8 W 15 19 8 10 1024.4 1024.4 0.0
21/10:00am 11.3 8.1 8.3 82 1.5 W 15 17 8 9 1024.2 1024.2 0.0
21/09:30am 10.9 8.0 8.1 83 1.4 W 13 17 7 9 1024.0 1024.0 0.0
21/09:00am 10.5 6.8 7.9 84 1.2 W 17 20 9 11 1023.8 1023.8 2.2
21/08:30am 10.2 7.7 8.0 86 1.1 W 11 15 6 8 1023.5 1023.5 2.2
21/08:00am 9.8 6.1 7.9 88 0.9 W 17 19 9 10 1023.1 1023.1 2.2
21/07:30am 9.7 6.8 8.0 89 0.8 WNW 13 15 7 8 1022.9 1022.9 2.2
21/07:00am 9.6 6.3 7.9 89 0.8 WNW 15 17 8 9 1022.5 1022.5 2.2
21/06:30am 9.6 6.2 7.7 88 0.9 WNW 15 20 8 11 1022.3 1022.3 2.2
21/06:00am 9.5 6.1 7.8 89 0.8 WNW 15 19 8 10 1021.9 1021.9 2.2
21/05:30am 9.6 5.9 7.9 89 0.8 W 17 20 9 11 1021.7 1021.7 2.2
21/05:00am 9.7 6.8 8.0 89 0.8 W 13 17 7 9 1021.4 1021.4 2.2
21/04:30am 9.8 6.9 8.1 89 0.8 W 13 19 7 10 1021.2 1021.2 2.2
21/04:00am 9.9 7.0 8.2 89 0.8 W 13 19 7 10 1021.1 1021.1 2.2
21/03:30am 9.9 7.5 8.5 91 0.7 W 11 15 6 8 1021.1 1021.1 2.2
21/03:00am 9.9 6.7 8.5 91 0.7 W 15 20 8 11 1021.0 1021.0 2.2
21/02:30am 9.9 7.5 8.7 92 0.6 W 11 15 6 8 1020.9 1020.9 2.0
21/02:00am 10.1 7.5 9.2 94 0.4 WSW 13 17 7 9 1020.8 1020.8 2.0
21/01:33am 9.9 6.2 9.3 96 0.3 SW 19 26 10 14 1020.7 1020.7 2.0
21/01:30am 9.9 6.6 9.4 97 0.2 SW 17 20 9 11 1020.6 1020.6 2.0
21/01:00am 10.0 6.2 9.9 99 0.1 SW 20 28 11 15 1020.5 1020.5 2.0
21/12:40am 10.1 6.3 9.9 99 0.1 SW 20 26 11 14 1020.4 1020.4 2.0
21/12:30am 10.2 6.5 10.0 99 0.1 SW 20 26 11 14 1020.3 1020.3 1.8
21/12:01am 10.4 5.1 9.8 96 0.3 SW 28 35 15 19 1020.2 1020.2 1.8
21/12:00am 10.4 5.1 9.8 96 0.3 SW 28 35 15 19 1020.2 1020.2 1.8
 
Date/Time
EST
Tmp

°C
App
Tmp
°C
Dew
Point
°C
Rel
Hum
%
Delta-T

°C
Wind Press
QNH
hPa
Press
MSL
hPa
Rain
since
9 am
mm
Dir
 
Spd
km/h
Gust
km/h
Spd
kts
Gust
kts
20/11:46pm 10.5 6.3 9.9 96 0.3 WSW 22 28 12 15 1020.0 1020.0 1.6
20/11:38pm 10.5 6.0 10.2 98 0.2 WSW 24 28 13 15 1019.9 1019.9 1.6
20/11:30pm 10.4 6.7 10.2 99 0.1 WSW 20 28 11 15 1019.9 1019.9 1.6
20/11:22pm 10.3 6.6 10.1 99 0.1 WSW 20 28 11 15 1019.9 1019.9 1.6
20/11:00pm 10.4 5.9 10.2 99 0.1 SW 24 30 13 16 1019.7 1019.7 1.4
20/10:30pm 10.7 7.3 10.5 99 0.1 WSW 19 28 10 15 1019.5 1019.5 0.4
20/10:03pm 10.8 7.1 10.3 97 0.3 WSW 20 26 11 14 1019.3 1019.3 0.4
20/10:00pm 10.9 7.5 10.4 97 0.3 WSW 19 26 10 14 1019.3 1019.3 0.4
20/09:30pm 11.0 6.2 10.2 95 0.4 WSW 26 33 14 18 1018.9 1018.9 0.4
20/09:00pm 11.1 7.1 10.5 96 0.3 SW 22 30 12 16 1018.4 1018.4 0.4
20/08:30pm 11.2 5.3 10.3 94 0.5 SW 32 43 17 23 1018.0 1018.0 0.4
20/08:00pm 11.3 5.2 10.5 95 0.4 SW 33 43 18 23 1017.5 1017.5 0.4
20/07:30pm 11.7 6.4 11.1 96 0.3 SW 30 41 16 22 1016.8 1016.8 0.4
20/07:00pm 12.0 6.7 11.4 96 0.3 WSW 30 43 16 23 1016.1 1016.1 0.4
20/06:59pm 12.0 6.7 11.4 96 0.3 WSW 30 37 16 20 1016.1 1016.1 0.4
20/06:30pm 12.3 6.6 11.8 97 0.3 WSW 33 46 18 25 1015.3 1015.3 0.4
20/06:15pm 12.5 7.8 11.9 96 0.3 WSW 28 41 15 22 1014.9 1014.9 0.4
20/06:03pm 12.7 6.2 11.8 94 0.5 WSW 37 46 20 25 1014.6 1014.6 0.4
20/06:00pm 12.7 6.6 11.8 94 0.5 WSW 35 46 19 25 1014.5 1014.5 0.4
20/05:46pm 12.8 7.2 12.0 95 0.4 WSW 33 50 18 27 1014.1 1014.1 0.4
20/05:44pm 12.8 7.4 12.2 96 0.3 WSW 32 50 17 27 1014.1 1014.1 0.4
20/05:43pm 12.9 7.5 12.3 96 0.3 WSW 32 43 17 23 1014.0 1014.0 0.4
20/05:30pm 12.7 8.8 12.1 96 0.3 W 24 35 13 19 1013.6 1013.6 0.4
20/05:19pm 12.6 7.4 11.7 94 0.5 W 30 41 16 22 1013.3 1013.3 0.2

Latest Capital City Observations: Canberra | Sydney | Melbourne | Brisbane | Adelaide | Perth | Hobart | Darwin

Other Formats:

Comma delimited format used in spreadsheet applications
http://www.bom.gov.au/fwo/IDV60901/IDV60901.94854.axf

JavaScript Object Notation format (JSON) in row-major order
http://www.bom.gov.au/fwo/IDV60901/IDV60901.94854.json